Terminal Aerodrome Forecast
Issued by NWS Wakefield, VA

Home | Current Version | Previous Version | Text Only | Print | Product List | Glossary On
Versions: 1 2 3 4 5 6 7 8 9 10 11 12 13 14 15 16 17
000
FTUS41 KAKQ 230100 AAA
TAFSBY
TAF AMD
KSBY 230115Z 2301/2324 04009KT P6SM SCT020 BKN050
      TEMPO 2302/2304 OVC020
     FM230400 01006KT 3SM -DZ BR OVC006
     FM231400 03003KT 2SM BR OVC005
     FM232000 16004KT 4SM BR OVC007=

USA.gov is the U.S. government's official web portal to all federal, state and local government web resources and services.